sensor_id;sensor_type;location;lat;lon;timestamp;P1;durP1;ratioP1;P2;durP2;ratioP2
67564;SDS011;54393;53.556;49.216;2023-07-20T00:01:28;0.80;;;0.80;;
67564;SDS011;54393;53.556;49.216;2023-07-20T00:03:55;0.90;;;0.90;;
67564;SDS011;54393;53.556;49.216;2023-07-20T00:06:22;2.08;;;0.88;;
67564;SDS011;54393;53.556;49.216;2023-07-20T00:08:53;1.20;;;1.05;;
67564;SDS011;54393;53.556;49.216;2023-07-20T00:11:20;1.08;;;1.08;;
67564;SDS011;54393;53.556;49.216;2023-07-20T00:13:52;1.08;;;1.08;;
67564;SDS011;54393;53.556;49.216;2023-07-20T00:16:19;1.30;;;1.20;;
67564;SDS011;54393;53.556;49.216;2023-07-20T00:18:45;1.10;;;0.93;;
67564;SDS011;54393;53.556;49.216;2023-07-20T00:21:12;1.08;;;0.95;;
67564;SDS011;54393;53.556;49.216;2023-07-20T00:23:38;1.30;;;1.20;;
67564;SDS011;54393;53.556;49.216;2023-07-20T00:26:05;2.10;;;1.50;;
67564;SDS011;54393;53.556;49.216;2023-07-20T00:28:31;1.77;;;1.48;;
67564;SDS011;54393;53.556;49.216;2023-07-20T00:30:59;1.70;;;1.60;;
67564;SDS011;54393;53.556;49.216;2023-07-20T00:33:26;1.15;;;1.05;;
67564;SDS011;54393;53.556;49.216;2023-07-20T00:35:52;1.60;;;1.50;;
67564;SDS011;54393;53.556;49.216;2023-07-20T00:38:19;1.27;;;1.25;;
67564;SDS011;54393;53.556;49.216;2023-07-20T00:40:46;1.30;;;1.20;;
67564;SDS011;54393;53.556;49.216;2023-07-20T00:43:14;2.37;;;1.37;;
67564;SDS011;54393;53.556;49.216;2023-07-20T00:45:41;2.47;;;1.20;;
67564;SDS011;54393;53.556;49.216;2023-07-20T00:48:08;3.17;;;1.52;;
67564;SDS011;54393;53.556;49.216;2023-07-20T00:50:35;1.60;;;1.50;;
67564;SDS011;54393;53.556;49.216;2023-07-20T00:53:02;2.15;;;1.70;;
67564;SDS011;54393;53.556;49.216;2023-07-20T00:55:30;1.20;;;1.12;;
67564;SDS011;54393;53.556;49.216;2023-07-20T00:57:57;1.33;;;1.20;;
67564;SDS011;54393;53.556;49.216;2023-07-20T01:00:24;1.15;;;1.05;;
67564;SDS011;54393;53.556;49.216;2023-07-20T01:02:50;1.30;;;1.20;;
67564;SDS011;54393;53.556;49.216;2023-07-20T01:05:17;1.62;;;1.52;;
67564;SDS011;54393;53.556;49.216;2023-07-20T01:07:57;1.37;;;1.27;;
67564;SDS011;54393;53.556;49.216;2023-07-20T01:10:29;1.17;;;1.08;;
67564;SDS011;54393;53.556;49.216;2023-07-20T01:13:02;1.20;;;1.20;;
67564;SDS011;54393;53.556;49.216;2023-07-20T01:15:29;1.20;;;1.20;;
67564;SDS011;54393;53.556;49.216;2023-07-20T01:17:56;1.37;;;1.27;;
67564;SDS011;54393;53.556;49.216;2023-07-20T01:20:22;1.98;;;1.33;;
67564;SDS011;54393;53.556;49.216;2023-07-20T01:26:00;1.60;;;1.50;;
67564;SDS011;54393;53.556;49.216;2023-07-20T01:33:50;1.62;;;1.52;;
67564;SDS011;54393;53.556;49.216;2023-07-20T01:36:19;3.05;;;1.42;;
67564;SDS011;54393;53.556;49.216;2023-07-20T01:38:48;1.75;;;1.35;;
67564;SDS011;54393;53.556;49.216;2023-07-20T01:41:15;1.77;;;1.25;;
67564;SDS011;54393;53.556;49.216;2023-07-20T01:43:43;2.15;;;1.10;;
67564;SDS011;54393;53.556;49.216;2023-07-20T01:46:10;1.30;;;1.20;;
67564;SDS011;54393;53.556;49.216;2023-07-20T01:48:36;1.30;;;1.23;;
67564;SDS011;54393;53.556;49.216;2023-07-20T01:51:03;1.00;;;1.00;;
67564;SDS011;54393;53.556;49.216;2023-07-20T01:53:29;1.23;;;1.08;;
67564;SDS011;54393;53.556;49.216;2023-07-20T01:55:56;1.62;;;1.12;;
67564;SDS011;54393;53.556;49.216;2023-07-20T01:58:23;1.90;;;1.12;;
67564;SDS011;54393;53.556;49.216;2023-07-20T02:00:50;3.75;;;1.52;;
67564;SDS011;54393;53.556;49.216;2023-07-20T02:03:16;1.30;;;1.20;;
67564;SDS011;54393;53.556;49.216;2023-07-20T02:05:42;1.52;;;1.42;;
67564;SDS011;54393;53.556;49.216;2023-07-20T02:08:09;1.45;;;1.20;;
67564;SDS011;54393;53.556;49.216;2023-07-20T02:10:36;1.42;;;1.25;;
67564;SDS011;54393;53.556;49.216;2023-07-20T02:13:03;2.78;;;1.33;;
67564;SDS011;54393;53.556;49.216;2023-07-20T02:15:29;1.08;;;1.08;;
67564;SDS011;54393;53.556;49.216;2023-07-20T02:17:56;1.37;;;1.33;;
67564;SDS011;54393;53.556;49.216;2023-07-20T02:20:22;1.45;;;1.30;;
67564;SDS011;54393;53.556;49.216;2023-07-20T02:22:48;2.72;;;1.30;;
67564;SDS011;54393;53.556;49.216;2023-07-20T02:25:15;1.75;;;1.65;;
67564;SDS011;54393;53.556;49.216;2023-07-20T02:27:42;1.62;;;1.52;;
67564;SDS011;54393;53.556;49.216;2023-07-20T02:30:08;1.52;;;1.30;;
67564;SDS011;54393;53.556;49.216;2023-07-20T02:32:35;1.50;;;1.40;;
67564;SDS011;54393;53.556;49.216;2023-07-20T02:35:01;1.73;;;1.62;;
67564;SDS011;54393;53.556;49.216;2023-07-20T02:37:28;2.28;;;1.75;;
67564;SDS011;54393;53.556;49.216;2023-07-20T02:39:55;1.90;;;1.27;;
67564;SDS011;54393;53.556;49.216;2023-07-20T02:42:22;1.58;;;1.23;;
67564;SDS011;54393;53.556;49.216;2023-07-20T02:44:51;1.73;;;1.35;;
67564;SDS011;54393;53.556;49.216;2023-07-20T02:47:17;1.85;;;1.40;;
67564;SDS011;54393;53.556;49.216;2023-07-20T02:49:44;1.48;;;1.37;;
67564;SDS011;54393;53.556;49.216;2023-07-20T02:52:10;3.50;;;1.50;;
67564;SDS011;54393;53.556;49.216;2023-07-20T02:54:37;2.85;;;1.70;;
67564;SDS011;54393;53.556;49.216;2023-07-20T02:57:03;1.70;;;1.60;;
67564;SDS011;54393;53.556;49.216;2023-07-20T02:59:30;1.73;;;1.62;;
67564;SDS011;54393;53.556;49.216;2023-07-20T03:01:56;2.60;;;1.60;;
67564;SDS011;54393;53.556;49.216;2023-07-20T03:04:27;2.00;;;1.80;;
67564;SDS011;54393;53.556;49.216;2023-07-20T03:06:53;2.15;;;1.92;;
67564;SDS011;54393;53.556;49.216;2023-07-20T03:09:20;1.95;;;1.70;;
67564;SDS011;54393;53.556;49.216;2023-07-20T03:11:47;2.35;;;1.98;;
67564;SDS011;54393;53.556;49.216;2023-07-20T03:14:15;3.22;;;1.90;;
67564;SDS011;54393;53.556;49.216;2023-07-20T03:16:41;2.70;;;1.92;;
67564;SDS011;54393;53.556;49.216;2023-07-20T03:19:08;2.08;;;1.92;;
67564;SDS011;54393;53.556;49.216;2023-07-20T03:21:34;2.28;;;2.00;;
67564;SDS011;54393;53.556;49.216;2023-07-20T03:24:06;2.90;;;1.90;;
67564;SDS011;54393;53.556;49.216;2023-07-20T03:26:34;2.53;;;2.00;;
67564;SDS011;54393;53.556;49.216;2023-07-20T03:29:01;2.90;;;1.95;;
67564;SDS011;54393;53.556;49.216;2023-07-20T03:31:28;2.00;;;1.80;;
67564;SDS011;54393;53.556;49.216;2023-07-20T03:33:55;2.08;;;1.90;;
67564;SDS011;54393;53.556;49.216;2023-07-20T03:36:21;1.80;;;1.70;;
67564;SDS011;54393;53.556;49.216;2023-07-20T03:38:48;3.00;;;2.22;;
67564;SDS011;54393;53.556;49.216;2023-07-20T03:41:15;2.53;;;1.90;;
67564;SDS011;54393;53.556;49.216;2023-07-20T03:43:41;2.97;;;2.00;;
67564;SDS011;54393;53.556;49.216;2023-07-20T03:46:08;2.28;;;2.05;;
67564;SDS011;54393;53.556;49.216;2023-07-20T03:48:34;2.80;;;1.87;;
67564;SDS011;54393;53.556;49.216;2023-07-20T03:51:01;3.08;;;1.87;;
67564;SDS011;54393;53.556;49.216;2023-07-20T03:53:27;2.28;;;2.08;;
67564;SDS011;54393;53.556;49.216;2023-07-20T03:55:54;3.35;;;2.12;;
67564;SDS011;54393;53.556;49.216;2023-07-20T03:58:21;1.75;;;1.52;;
67564;SDS011;54393;53.556;49.216;2023-07-20T04:00:51;2.28;;;2.08;;
67564;SDS011;54393;53.556;49.216;2023-07-20T04:03:18;1.90;;;1.70;;
67564;SDS011;54393;53.556;49.216;2023-07-20T04:05:45;1.75;;;1.65;;
67564;SDS011;54393;53.556;49.216;2023-07-20T04:08:12;1.90;;;1.80;;
67564;SDS011;54393;53.556;49.216;2023-07-20T04:10:38;2.97;;;2.22;;
67564;SDS011;54393;53.556;49.216;2023-07-20T04:13:08;2.65;;;2.20;;
67564;SDS011;54393;53.556;49.216;2023-07-20T04:15:34;2.03;;;1.92;;
67564;SDS011;54393;53.556;49.216;2023-07-20T04:18:01;2.35;;;1.80;;
67564;SDS011;54393;53.556;49.216;2023-07-20T04:20:27;2.25;;;2.00;;
67564;SDS011;54393;53.556;49.216;2023-07-20T04:22:54;3.05;;;2.12;;
67564;SDS011;54393;53.556;49.216;2023-07-20T04:25:20;2.65;;;1.85;;
67564;SDS011;54393;53.556;49.216;2023-07-20T04:27:47;3.45;;;2.10;;
67564;SDS011;54393;53.556;49.216;2023-07-20T04:30:13;2.15;;;1.87;;
67564;SDS011;54393;53.556;49.216;2023-07-20T04:32:42;3.90;;;2.12;;
67564;SDS011;54393;53.556;49.216;2023-07-20T04:35:11;2.22;;;2.03;;
67564;SDS011;54393;53.556;49.216;2023-07-20T04:37:41;2.95;;;1.90;;
67564;SDS011;54393;53.556;49.216;2023-07-20T04:40:11;2.33;;;2.10;;
67564;SDS011;54393;53.556;49.216;2023-07-20T04:42:40;2.65;;;2.45;;
67564;SDS011;54393;53.556;49.216;2023-07-20T04:45:07;2.67;;;1.92;;
67564;SDS011;54393;53.556;49.216;2023-07-20T04:47:34;2.92;;;2.20;;
67564;SDS011;54393;53.556;49.216;2023-07-20T04:50:00;2.72;;;2.15;;
67564;SDS011;54393;53.556;49.216;2023-07-20T04:52:27;4.72;;;2.10;;
67564;SDS011;54393;53.556;49.216;2023-07-20T04:54:53;2.30;;;2.10;;
67564;SDS011;54393;53.556;49.216;2023-07-20T04:57:19;3.50;;;2.03;;
67564;SDS011;54393;53.556;49.216;2023-07-20T04:59:50;2.92;;;2.35;;
67564;SDS011;54393;53.556;49.216;2023-07-20T05:02:16;2.20;;;2.00;;
67564;SDS011;54393;53.556;49.216;2023-07-20T05:04:43;2.33;;;2.12;;
67564;SDS011;54393;53.556;49.216;2023-07-20T05:07:09;5.10;;;2.42;;
67564;SDS011;54393;53.556;49.216;2023-07-20T05:09:36;2.22;;;1.90;;
67564;SDS011;54393;53.556;49.216;2023-07-20T05:12:02;2.12;;;1.98;;
67564;SDS011;54393;53.556;49.216;2023-07-20T05:14:29;2.25;;;2.03;;
67564;SDS011;54393;53.556;49.216;2023-07-20T05:16:56;2.33;;;2.12;;
67564;SDS011;54393;53.556;49.216;2023-07-20T05:19:24;2.55;;;2.05;;
67564;SDS011;54393;53.556;49.216;2023-07-20T05:21:51;2.00;;;1.90;;
67564;SDS011;54393;53.556;49.216;2023-07-20T05:24:17;3.50;;;2.20;;
67564;SDS011;54393;53.556;49.216;2023-07-20T05:26:44;4.80;;;2.33;;
67564;SDS011;54393;53.556;49.216;2023-07-20T05:29:10;2.78;;;1.80;;
67564;SDS011;54393;53.556;49.216;2023-07-20T05:31:37;2.08;;;1.87;;
67564;SDS011;54393;53.556;49.216;2023-07-20T05:34:03;2.87;;;1.80;;
67564;SDS011;54393;53.556;49.216;2023-07-20T05:36:30;4.50;;;2.10;;
67564;SDS011;54393;53.556;49.216;2023-07-20T05:38:56;2.08;;;1.80;;
67564;SDS011;54393;53.556;49.216;2023-07-20T05:41:23;4.43;;;2.35;;
67564;SDS011;54393;53.556;49.216;2023-07-20T05:43:49;2.05;;;1.70;;
67564;SDS011;54393;53.556;49.216;2023-07-20T05:46:16;2.00;;;1.80;;
67564;SDS011;54393;53.556;49.216;2023-07-20T05:48:42;2.15;;;1.62;;
67564;SDS011;54393;53.556;49.216;2023-07-20T05:51:08;2.17;;;1.98;;
67564;SDS011;54393;53.556;49.216;2023-07-20T05:53:35;1.98;;;1.70;;
67564;SDS011;54393;53.556;49.216;2023-07-20T05:56:03;3.30;;;2.12;;
67564;SDS011;54393;53.556;49.216;2023-07-20T05:58:30;1.80;;;1.67;;
67564;SDS011;54393;53.556;49.216;2023-07-20T06:00:56;4.60;;;1.95;;
67564;SDS011;54393;53.556;49.216;2023-07-20T06:03:23;2.20;;;1.70;;
67564;SDS011;54393;53.556;49.216;2023-07-20T06:05:49;1.70;;;1.60;;
67564;SDS011;54393;53.556;49.216;2023-07-20T06:08:17;1.80;;;1.70;;
67564;SDS011;54393;53.556;49.216;2023-07-20T06:10:43;2.03;;;1.55;;
67564;SDS011;54393;53.556;49.216;2023-07-20T06:13:10;1.85;;;1.60;;
67564;SDS011;54393;53.556;49.216;2023-07-20T06:15:36;2.95;;;1.33;;
67564;SDS011;54393;53.556;49.216;2023-07-20T06:18:04;1.98;;;1.40;;
67564;SDS011;54393;53.556;49.216;2023-07-20T06:20:30;2.30;;;1.85;;
67564;SDS011;54393;53.556;49.216;2023-07-20T06:22:57;2.47;;;1.50;;
67564;SDS011;54393;53.556;49.216;2023-07-20T06:25:23;2.03;;;1.80;;
67564;SDS011;54393;53.556;49.216;2023-07-20T06:27:50;1.62;;;1.52;;
67564;SDS011;54393;53.556;49.216;2023-07-20T06:30:17;1.85;;;1.50;;
67564;SDS011;54393;53.556;49.216;2023-07-20T06:32:43;2.25;;;1.75;;
67564;SDS011;54393;53.556;49.216;2023-07-20T06:35:10;2.62;;;1.67;;
67564;SDS011;54393;53.556;49.216;2023-07-20T06:37:37;2.15;;;1.58;;
67564;SDS011;54393;53.556;49.216;2023-07-20T06:40:04;1.87;;;1.65;;
67564;SDS011;54393;53.556;49.216;2023-07-20T06:42:31;3.25;;;1.45;;
67564;SDS011;54393;53.556;49.216;2023-07-20T06:44:58;1.48;;;1.37;;
67564;SDS011;54393;53.556;49.216;2023-07-20T06:47:24;2.08;;;1.50;;
67564;SDS011;54393;53.556;49.216;2023-07-20T06:49:51;1.60;;;1.50;;
67564;SDS011;54393;53.556;49.216;2023-07-20T06:52:17;1.75;;;1.42;;
67564;SDS011;54393;53.556;49.216;2023-07-20T06:54:44;2.47;;;1.80;;
67564;SDS011;54393;53.556;49.216;2023-07-20T06:57:10;2.70;;;1.67;;
67564;SDS011;54393;53.556;49.216;2023-07-20T06:59:36;1.40;;;1.30;;
67564;SDS011;54393;53.556;49.216;2023-07-20T07:02:03;1.85;;;1.60;;
67564;SDS011;54393;53.556;49.216;2023-07-20T07:04:30;1.00;;;1.00;;
67564;SDS011;54393;53.556;49.216;2023-07-20T07:06:56;1.60;;;1.50;;
67564;SDS011;54393;53.556;49.216;2023-07-20T07:09:23;2.50;;;1.40;;
67564;SDS011;54393;53.556;49.216;2023-07-20T07:11:49;1.40;;;1.30;;
67564;SDS011;54393;53.556;49.216;2023-07-20T07:14:18;1.73;;;1.58;;
67564;SDS011;54393;53.556;49.216;2023-07-20T07:16:45;1.27;;;1.17;;
67564;SDS011;54393;53.556;49.216;2023-07-20T07:19:12;1.40;;;1.30;;
67564;SDS011;54393;53.556;49.216;2023-07-20T07:21:38;1.37;;;1.27;;
67564;SDS011;54393;53.556;49.216;2023-07-20T07:24:05;1.80;;;1.33;;
67564;SDS011;54393;53.556;49.216;2023-07-20T07:26:33;1.30;;;1.20;;
67564;SDS011;54393;53.556;49.216;2023-07-20T07:28:59;1.45;;;1.23;;
67564;SDS011;54393;53.556;49.216;2023-07-20T07:31:26;1.65;;;1.37;;
67564;SDS011;54393;53.556;49.216;2023-07-20T07:33:53;2.45;;;1.45;;
67564;SDS011;54393;53.556;49.216;2023-07-20T07:36:20;1.30;;;1.20;;
67564;SDS011;54393;53.556;49.216;2023-07-20T07:38:47;1.60;;;1.50;;
67564;SDS011;54393;53.556;49.216;2023-07-20T07:41:13;2.75;;;1.33;;
67564;SDS011;54393;53.556;49.216;2023-07-20T07:43:40;1.27;;;1.17;;
67564;SDS011;54393;53.556;49.216;2023-07-20T07:46:06;1.27;;;1.17;;
67564;SDS011;54393;53.556;49.216;2023-07-20T07:48:33;1.35;;;1.17;;
67564;SDS011;54393;53.556;49.216;2023-07-20T07:50:59;3.00;;;1.30;;
67564;SDS011;54393;53.556;49.216;2023-07-20T07:53:26;1.25;;;1.17;;
67564;SDS011;54393;53.556;49.216;2023-07-20T07:55:53;2.60;;;1.12;;
67564;SDS011;54393;53.556;49.216;2023-07-20T07:58:19;1.33;;;1.23;;
67564;SDS011;54393;53.556;49.216;2023-07-20T08:00:46;2.83;;;1.52;;
67564;SDS011;54393;53.556;49.216;2023-07-20T08:03:13;1.50;;;1.40;;
67564;SDS011;54393;53.556;49.216;2023-07-20T08:05:39;1.77;;;1.30;;
67564;SDS011;54393;53.556;49.216;2023-07-20T08:08:06;1.45;;;1.05;;
67564;SDS011;54393;53.556;49.216;2023-07-20T08:10:34;1.50;;;1.20;;
67564;SDS011;54393;53.556;49.216;2023-07-20T08:13:01;1.65;;;1.30;;
67564;SDS011;54393;53.556;49.216;2023-07-20T08:15:27;1.30;;;1.20;;
67564;SDS011;54393;53.556;49.216;2023-07-20T08:17:54;0.85;;;0.85;;
67564;SDS011;54393;53.556;49.216;2023-07-20T08:20:21;1.08;;;0.90;;
67564;SDS011;54393;53.556;49.216;2023-07-20T08:22:54;1.05;;;1.02;;
67564;SDS011;54393;53.556;49.216;2023-07-20T08:25:20;2.75;;;1.15;;
67564;SDS011;54393;53.556;49.216;2023-07-20T08:27:47;1.02;;;0.80;;
67564;SDS011;54393;53.556;49.216;2023-07-20T08:30:13;2.12;;;1.37;;
67564;SDS011;54393;53.556;49.216;2023-07-20T08:32:40;1.45;;;1.00;;
67564;SDS011;54393;53.556;49.216;2023-07-20T08:35:06;1.23;;;1.12;;
67564;SDS011;54393;53.556;49.216;2023-07-20T08:37:33;1.20;;;1.10;;
67564;SDS011;54393;53.556;49.216;2023-07-20T08:40:00;1.12;;;1.02;;
67564;SDS011;54393;53.556;49.216;2023-07-20T08:42:26;2.25;;;1.05;;
67564;SDS011;54393;53.556;49.216;2023-07-20T08:44:53;1.30;;;1.20;;
67564;SDS011;54393;53.556;49.216;2023-07-20T08:47:21;1.10;;;1.00;;
67564;SDS011;54393;53.556;49.216;2023-07-20T08:49:48;1.23;;;1.12;;
67564;SDS011;54393;53.556;49.216;2023-07-20T08:52:15;1.87;;;1.17;;
67564;SDS011;54393;53.556;49.216;2023-07-20T08:54:41;1.42;;;1.00;;
67564;SDS011;54393;53.556;49.216;2023-07-20T08:57:08;1.87;;;1.10;;
67564;SDS011;54393;53.556;49.216;2023-07-20T08:59:37;3.60;;;1.37;;
67564;SDS011;54393;53.556;49.216;2023-07-20T09:02:04;1.27;;;1.17;;
67564;SDS011;54393;53.556;49.216;2023-07-20T09:04:32;1.30;;;1.10;;
67564;SDS011;54393;53.556;49.216;2023-07-20T09:06:58;1.15;;;1.00;;
67564;SDS011;54393;53.556;49.216;2023-07-20T09:09:25;1.00;;;0.95;;
67564;SDS011;54393;53.556;49.216;2023-07-20T09:11:51;1.20;;;1.00;;
67564;SDS011;54393;53.556;49.216;2023-07-20T09:14:18;1.87;;;1.00;;
67564;SDS011;54393;53.556;49.216;2023-07-20T09:16:48;1.02;;;1.02;;
67564;SDS011;54393;53.556;49.216;2023-07-20T09:19:15;1.65;;;1.23;;
67564;SDS011;54393;53.556;49.216;2023-07-20T09:21:49;1.02;;;0.80;;
67564;SDS011;54393;53.556;49.216;2023-07-20T09:24:19;2.10;;;1.10;;
67564;SDS011;54393;53.556;49.216;2023-07-20T09:26:47;1.12;;;0.90;;
67564;SDS011;54393;53.556;49.216;2023-07-20T09:29:14;2.67;;;1.12;;
67564;SDS011;54393;53.556;49.216;2023-07-20T09:31:48;2.15;;;0.82;;
67564;SDS011;54393;53.556;49.216;2023-07-20T09:34:24;1.02;;;0.90;;
67564;SDS011;54393;53.556;49.216;2023-07-20T09:36:50;1.85;;;1.12;;
67564;SDS011;54393;53.556;49.216;2023-07-20T09:39:17;1.87;;;1.10;;
67564;SDS011;54393;53.556;49.216;2023-07-20T09:41:44;0.90;;;0.90;;
67564;SDS011;54393;53.556;49.216;2023-07-20T09:44:10;1.80;;;1.10;;
67564;SDS011;54393;53.556;49.216;2023-07-20T09:46:41;1.02;;;1.00;;
67564;SDS011;54393;53.556;49.216;2023-07-20T09:49:17;1.10;;;1.00;;
67564;SDS011;54393;53.556;49.216;2023-07-20T09:51:44;1.33;;;1.00;;
67564;SDS011;54393;53.556;49.216;2023-07-20T09:54:11;0.95;;;0.93;;
67564;SDS011;54393;53.556;49.216;2023-07-20T09:56:39;0.68;;;0.68;;
67564;SDS011;54393;53.556;49.216;2023-07-20T09:59:07;1.30;;;1.20;;
67564;SDS011;54393;53.556;49.216;2023-07-20T10:01:34;1.27;;;1.00;;
67564;SDS011;54393;53.556;49.216;2023-07-20T10:04:02;2.97;;;1.27;;
67564;SDS011;54393;53.556;49.216;2023-07-20T10:06:30;0.77;;;0.77;;
67564;SDS011;54393;53.556;49.216;2023-07-20T10:09:02;1.67;;;1.20;;
67564;SDS011;54393;53.556;49.216;2023-07-20T10:11:32;0.82;;;0.70;;
67564;SDS011;54393;53.556;49.216;2023-07-20T10:14:04;1.15;;;1.02;;
67564;SDS011;54393;53.556;49.216;2023-07-20T10:16:34;1.05;;;1.00;;
67564;SDS011;54393;53.556;49.216;2023-07-20T10:19:11;1.60;;;1.10;;
67564;SDS011;54393;53.556;49.216;2023-07-20T10:22:00;1.75;;;0.85;;
67564;SDS011;54393;53.556;49.216;2023-07-20T10:24:31;1.75;;;1.02;;
67564;SDS011;54393;53.556;49.216;2023-07-20T10:26:57;2.15;;;1.02;;
67564;SDS011;54393;53.556;49.216;2023-07-20T10:29:24;2.08;;;1.25;;
67564;SDS011;54393;53.556;49.216;2023-07-20T10:31:53;1.00;;;0.90;;
67564;SDS011;54393;53.556;49.216;2023-07-20T10:34:21;1.10;;;1.10;;
67564;SDS011;54393;53.556;49.216;2023-07-20T10:36:47;1.98;;;0.90;;
67564;SDS011;54393;53.556;49.216;2023-07-20T10:39:24;1.10;;;1.00;;
67564;SDS011;54393;53.556;49.216;2023-07-20T10:42:09;1.00;;;0.90;;
67564;SDS011;54393;53.556;49.216;2023-07-20T10:44:39;1.20;;;1.10;;
67564;SDS011;54393;53.556;49.216;2023-07-20T10:47:09;1.08;;;0.95;;
67564;SDS011;54393;53.556;49.216;2023-07-20T10:49:58;1.62;;;1.02;;
67564;SDS011;54393;53.556;49.216;2023-07-20T10:52:25;0.93;;;0.90;;
67564;SDS011;54393;53.556;49.216;2023-07-20T10:54:53;1.10;;;0.90;;
67564;SDS011;54393;53.556;49.216;2023-07-20T10:57:29;1.92;;;1.42;;
67564;SDS011;54393;53.556;49.216;2023-07-20T11:00:06;0.88;;;0.82;;
67564;SDS011;54393;53.556;49.216;2023-07-20T11:02:44;0.88;;;0.80;;
67564;SDS011;54393;53.556;49.216;2023-07-20T11:08:09;1.52;;;1.00;;
67564;SDS011;54393;53.556;49.216;2023-07-20T11:10:36;1.48;;;1.05;;
67564;SDS011;54393;53.556;49.216;2023-07-20T11:13:19;4.07;;;1.12;;
67564;SDS011;54393;53.556;49.216;2023-07-20T11:15:53;2.28;;;1.33;;
67564;SDS011;54393;53.556;49.216;2023-07-20T11:18:31;0.88;;;0.80;;
67564;SDS011;54393;53.556;49.216;2023-07-20T11:21:06;0.82;;;0.68;;
67564;SDS011;54393;53.556;49.216;2023-07-20T11:23:34;3.75;;;1.00;;
67564;SDS011;54393;53.556;49.216;2023-07-20T11:26:04;1.30;;;1.20;;
67564;SDS011;54393;53.556;49.216;2023-07-20T11:28:31;1.08;;;0.80;;
67564;SDS011;54393;53.556;49.216;2023-07-20T11:30:57;3.75;;;1.55;;
67564;SDS011;54393;53.556;49.216;2023-07-20T11:33:23;1.27;;;1.00;;
67564;SDS011;54393;53.556;49.216;2023-07-20T11:35:50;1.75;;;1.10;;
67564;SDS011;54393;53.556;49.216;2023-07-20T11:38:18;3.97;;;1.58;;
67564;SDS011;54393;53.556;49.216;2023-07-20T11:40:44;1.40;;;0.93;;
67564;SDS011;54393;53.556;49.216;2023-07-20T11:43:14;1.75;;;1.12;;
67564;SDS011;54393;53.556;49.216;2023-07-20T11:45:41;1.37;;;1.00;;
67564;SDS011;54393;53.556;49.216;2023-07-20T11:48:13;1.10;;;0.73;;
67564;SDS011;54393;53.556;49.216;2023-07-20T11:50:41;2.37;;;1.30;;
67564;SDS011;54393;53.556;49.216;2023-07-20T11:53:07;3.22;;;1.02;;
67564;SDS011;54393;53.556;49.216;2023-07-20T11:55:34;1.27;;;1.17;;
67564;SDS011;54393;53.556;49.216;2023-07-20T11:58:04;1.37;;;1.20;;
67564;SDS011;54393;53.556;49.216;2023-07-20T12:00:35;1.33;;;0.88;;
67564;SDS011;54393;53.556;49.216;2023-07-20T12:03:05;1.23;;;1.12;;
67564;SDS011;54393;53.556;49.216;2023-07-20T12:05:32;3.25;;;1.62;;
67564;SDS011;54393;53.556;49.216;2023-07-20T12:08:00;1.50;;;0.90;;
67564;SDS011;54393;53.556;49.216;2023-07-20T12:10:27;2.05;;;0.90;;
67564;SDS011;54393;53.556;49.216;2023-07-20T12:12:54;1.55;;;1.02;;
67564;SDS011;54393;53.556;49.216;2023-07-20T12:15:26;1.37;;;1.17;;
67564;SDS011;54393;53.556;49.216;2023-07-20T12:17:55;2.42;;;0.90;;
67564;SDS011;54393;53.556;49.216;2023-07-20T12:20:29;1.30;;;1.10;;
67564;SDS011;54393;53.556;49.216;2023-07-20T12:22:57;1.02;;;0.85;;
67564;SDS011;54393;53.556;49.216;2023-07-20T12:28:07;1.73;;;1.12;;
67564;SDS011;54393;53.556;49.216;2023-07-20T12:30:36;4.93;;;1.33;;
67564;SDS011;54393;53.556;49.216;2023-07-20T12:33:03;2.78;;;1.10;;
67564;SDS011;54393;53.556;49.216;2023-07-20T12:35:30;2.12;;;1.15;;
67564;SDS011;54393;53.556;49.216;2023-07-20T12:37:57;1.62;;;1.00;;
67564;SDS011;54393;53.556;49.216;2023-07-20T12:40:23;2.05;;;0.80;;
67564;SDS011;54393;53.556;49.216;2023-07-20T12:42:50;1.80;;;1.00;;
67564;SDS011;54393;53.556;49.216;2023-07-20T12:45:17;1.15;;;1.00;;
67564;SDS011;54393;53.556;49.216;2023-07-20T12:47:44;5.87;;;1.00;;
67564;SDS011;54393;53.556;49.216;2023-07-20T12:50:10;1.55;;;1.12;;
67564;SDS011;54393;53.556;49.216;2023-07-20T12:52:39;5.07;;;1.00;;
67564;SDS011;54393;53.556;49.216;2023-07-20T12:55:06;1.30;;;0.90;;
67564;SDS011;54393;53.556;49.216;2023-07-20T12:57:37;2.60;;;1.00;;
67564;SDS011;54393;53.556;49.216;2023-07-20T13:00:04;3.92;;;0.95;;
67564;SDS011;54393;53.556;49.216;2023-07-20T13:02:33;1.52;;;0.90;;
67564;SDS011;54393;53.556;49.216;2023-07-20T13:05:00;1.52;;;1.00;;
67564;SDS011;54393;53.556;49.216;2023-07-20T13:07:33;2.30;;;0.98;;
67564;SDS011;54393;53.556;49.216;2023-07-20T13:10:01;1.67;;;1.27;;
67564;SDS011;54393;53.556;49.216;2023-07-20T13:12:29;1.80;;;0.88;;
67564;SDS011;54393;53.556;49.216;2023-07-20T13:14:57;1.08;;;0.73;;
67564;SDS011;54393;53.556;49.216;2023-07-20T13:17:26;1.08;;;0.82;;
67564;SDS011;54393;53.556;49.216;2023-07-20T13:19:53;3.08;;;0.88;;
67564;SDS011;54393;53.556;49.216;2023-07-20T13:22:19;3.12;;;0.90;;
67564;SDS011;54393;53.556;49.216;2023-07-20T13:24:46;2.90;;;0.90;;
67564;SDS011;54393;53.556;49.216;2023-07-20T13:27:17;2.10;;;1.25;;
67564;SDS011;54393;53.556;49.216;2023-07-20T13:29:44;2.35;;;1.33;;
67564;SDS011;54393;53.556;49.216;2023-07-20T13:32:13;1.85;;;0.80;;
67564;SDS011;54393;53.556;49.216;2023-07-20T13:34:43;3.80;;;1.10;;
67564;SDS011;54393;53.556;49.216;2023-07-20T13:37:10;1.67;;;1.00;;
67564;SDS011;54393;53.556;49.216;2023-07-20T13:39:37;2.67;;;1.17;;
67564;SDS011;54393;53.556;49.216;2023-07-20T13:42:06;1.20;;;1.02;;
67564;SDS011;54393;53.556;49.216;2023-07-20T13:44:34;2.83;;;1.02;;
67564;SDS011;54393;53.556;49.216;2023-07-20T13:47:01;1.37;;;1.08;;
67564;SDS011;54393;53.556;49.216;2023-07-20T13:49:27;1.25;;;0.80;;
67564;SDS011;54393;53.556;49.216;2023-07-20T13:51:55;0.93;;;0.80;;
67564;SDS011;54393;53.556;49.216;2023-07-20T13:54:22;2.78;;;1.02;;
67564;SDS011;54393;53.556;49.216;2023-07-20T13:56:52;0.65;;;0.65;;
67564;SDS011;54393;53.556;49.216;2023-07-20T13:59:18;0.80;;;0.68;;
67564;SDS011;54393;53.556;49.216;2023-07-20T14:01:45;1.00;;;0.90;;
67564;SDS011;54393;53.556;49.216;2023-07-20T14:04:12;2.92;;;1.00;;
67564;SDS011;54393;53.556;49.216;2023-07-20T14:06:39;1.85;;;1.12;;
67564;SDS011;54393;53.556;49.216;2023-07-20T14:09:06;1.92;;;0.80;;
67564;SDS011;54393;53.556;49.216;2023-07-20T14:11:32;2.10;;;0.93;;
67564;SDS011;54393;53.556;49.216;2023-07-20T14:13:59;1.00;;;0.90;;
67564;SDS011;54393;53.556;49.216;2023-07-20T14:16:25;1.60;;;1.00;;
67564;SDS011;54393;53.556;49.216;2023-07-20T14:18:52;3.28;;;1.20;;
67564;SDS011;54393;53.556;49.216;2023-07-20T14:21:19;1.83;;;1.10;;
67564;SDS011;54393;53.556;49.216;2023-07-20T14:23:47;2.72;;;1.25;;
67564;SDS011;54393;53.556;49.216;2023-07-20T14:26:14;1.90;;;1.12;;
67564;SDS011;54393;53.556;49.216;2023-07-20T14:28:41;0.93;;;0.80;;
67564;SDS011;54393;53.556;49.216;2023-07-20T14:31:07;4.37;;;1.00;;
67564;SDS011;54393;53.556;49.216;2023-07-20T14:33:34;1.20;;;0.95;;
67564;SDS011;54393;53.556;49.216;2023-07-20T14:36:01;1.40;;;1.00;;
67564;SDS011;54393;53.556;49.216;2023-07-20T14:38:28;2.17;;;0.90;;
67564;SDS011;54393;53.556;49.216;2023-07-20T14:40:55;0.88;;;0.88;;
67564;SDS011;54393;53.556;49.216;2023-07-20T14:43:22;0.88;;;0.88;;
67564;SDS011;54393;53.556;49.216;2023-07-20T14:45:49;1.37;;;0.85;;
67564;SDS011;54393;53.556;49.216;2023-07-20T14:48:15;1.10;;;1.00;;
67564;SDS011;54393;53.556;49.216;2023-07-20T14:50:42;1.65;;;0.88;;